createdAt,value
2019-05-29T00:02:06.642Z,100635.66
2019-05-29T00:04:39.281Z,100632.19
2019-05-29T00:07:12.226Z,100618.86
2019-05-29T00:09:44.747Z,100622.05
2019-05-29T00:12:20.089Z,100615.39
2019-05-29T00:14:51.227Z,100623.42
2019-05-29T00:17:23.524Z,100617.95
2019-05-29T00:19:55.810Z,100627.19
2019-05-29T00:22:28.065Z,100630.80
2019-05-29T00:25:00.384Z,100631.16
2019-05-29T00:27:32.928Z,100631.55
2019-05-29T00:30:06.797Z,100628.91
2019-05-29T00:32:39.426Z,100630.67
2019-05-29T00:35:12.312Z,100630.64
2019-05-29T00:37:44.962Z,100638.45
2019-05-29T00:40:17.628Z,100631.34
2019-05-29T00:42:49.848Z,100626.05
2019-05-29T00:45:22.422Z,100625.15
2019-05-29T00:47:54.721Z,100622.89
2019-05-29T00:50:30.520Z,100631.89
2019-05-29T00:53:02.843Z,100629.24
2019-05-29T00:55:35.384Z,100625.77
2019-05-29T00:58:08.708Z,100634.40
2019-05-29T01:00:41.314Z,100630.34
2019-05-29T01:03:15.840Z,100634.71
2019-05-29T01:05:48.276Z,100637.13
2019-05-29T01:08:20.578Z,100638.67
2019-05-29T01:10:52.787Z,100639.45
2019-05-29T01:13:25.286Z,100639.59
2019-05-29T01:15:57.505Z,100637.16
2019-05-29T01:18:31.807Z,100632.27
2019-05-29T01:21:05.383Z,100628.44
2019-05-29T01:23:37.895Z,100638.47
2019-05-29T01:26:14.491Z,100640.85
2019-05-29T01:28:47.163Z,100635.38
2019-05-29T01:31:24.730Z,100640.36
2019-05-29T01:33:59.598Z,100641.11
2019-05-29T01:36:31.810Z,100635.19
2019-05-29T01:39:04.234Z,100636.99
2019-05-29T01:41:36.731Z,100628.09
2019-05-29T01:44:09.106Z,100630.91
2019-05-29T01:46:41.547Z,100632.93
2019-05-29T01:49:13.952Z,100632.10
2019-05-29T01:51:46.404Z,100634.84
2019-05-29T01:54:19.720Z,100635.22
2019-05-29T01:56:52.401Z,100634.34
2019-05-29T01:59:24.727Z,100634.12
2019-05-29T02:01:56.905Z,100636.94
2019-05-29T02:04:29.180Z,100636.13
2019-05-29T02:07:01.409Z,100643.18
2019-05-29T02:09:33.746Z,100647.19
2019-05-29T02:12:06.230Z,100645.78
2019-05-29T02:14:38.704Z,100641.55
2019-05-29T02:17:11.107Z,100648.38
2019-05-29T02:19:43.450Z,100642.12
2019-05-29T02:22:16.898Z,100651.41
2019-05-29T02:24:49.387Z,100652.44
2019-05-29T02:27:21.704Z,100658.29
2019-05-29T02:29:54.139Z,100660.53
2019-05-29T02:32:27.877Z,100663.54
2019-05-29T02:35:00.193Z,100665.33
2019-05-29T02:37:32.562Z,100670.58
2019-05-29T02:40:05.347Z,100668.20
2019-05-29T02:42:37.658Z,100666.45
2019-05-29T02:45:10.899Z,100661.03
2019-05-29T02:47:43.287Z,100665.26
2019-05-29T02:50:15.578Z,100667.47
2019-05-29T02:52:47.817Z,100675.92
2019-05-29T02:55:20.772Z,100676.17
2019-05-29T02:57:53.430Z,100669.27
2019-05-29T03:00:55.066Z,100669.27
2019-05-29T03:03:31.165Z,100676.17
2019-05-29T03:06:02.105Z,100681.81
2019-05-29T03:08:34.675Z,100681.42
2019-05-29T03:11:07.457Z,100685.48
2019-05-29T03:13:39.946Z,100679.27
2019-05-29T03:16:13.172Z,100693.20
2019-05-29T03:18:45.662Z,100697.87
2019-05-29T03:21:18.246Z,100698.53
2019-05-29T03:23:50.755Z,100706.00
2019-05-29T03:26:26.441Z,100705.86
2019-05-29T03:28:57.140Z,100703.67
2019-05-29T03:31:36.953Z,100700.11
2019-05-29T03:34:03.744Z,100693.72
2019-05-29T03:36:43.902Z,100705.45
2019-05-29T03:41:49.545Z,100708.54
2019-05-29T03:44:22.142Z,100703.31
2019-05-29T03:46:54.624Z,100709.83
2019-05-29T03:49:29.052Z,100711.30
2019-05-29T03:52:01.545Z,100712.76
2019-05-29T03:54:35.475Z,100714.22
2019-05-29T03:57:07.933Z,100722.77
2019-05-29T03:59:40.170Z,100719.16
2019-05-29T04:02:12.551Z,100720.62
2019-05-29T04:04:44.838Z,100714.84
2019-05-29T04:07:17.196Z,100710.47
2019-05-29T04:09:49.534Z,100717.80
2019-05-29T04:12:21.872Z,100714.05
2019-05-29T04:14:54.698Z,100722.39
2019-05-29T04:17:31.834Z,100721.25
2019-05-29T04:20:04.199Z,100714.67
2019-05-29T04:22:46.004Z,100707.88
2019-05-29T04:25:18.292Z,100702.72
2019-05-29T04:27:53.221Z,100708.48
2019-05-29T04:30:28.150Z,100710.95
2019-05-29T04:33:06.201Z,100706.98
2019-05-29T04:35:40.031Z,100703.44
2019-05-29T04:38:19.200Z,100712.41
2019-05-29T04:40:53.088Z,100713.11
2019-05-29T04:43:25.296Z,100718.03
2019-05-29T04:45:57.845Z,100718.11
2019-05-29T04:48:31.527Z,100721.41
2019-05-29T04:51:04.598Z,100726.55
2019-05-29T04:53:37.756Z,100728.61
2019-05-29T04:56:10.514Z,100728.31
2019-05-29T04:58:43.122Z,100723.03
2019-05-29T05:01:16.570Z,100714.70
2019-05-29T05:03:49.195Z,100724.32
2019-05-29T05:06:21.407Z,100720.16
2019-05-29T05:08:53.752Z,100723.09
2019-05-29T05:11:26.518Z,100723.01
2019-05-29T05:14:01.654Z,100721.23
2019-05-29T05:16:33.731Z,100720.12
2019-05-29T05:19:05.946Z,100723.17
2019-05-29T05:21:38.421Z,100721.41
2019-05-29T05:24:10.820Z,100720.70
2019-05-29T05:26:43.176Z,100719.23
2019-05-29T05:29:15.601Z,100713.81
2019-05-29T05:31:48.166Z,100715.22
2019-05-29T05:34:20.662Z,100713.81
2019-05-29T05:36:52.949Z,100707.27
2019-05-29T05:39:25.286Z,100700.70
2019-05-29T05:41:57.545Z,100704.32
2019-05-29T05:44:30.772Z,100697.05
2019-05-29T05:47:03.475Z,100701.56
2019-05-29T05:49:37.297Z,100690.80
2019-05-29T05:52:09.858Z,100690.21
2019-05-29T05:54:42.275Z,100684.53
2019-05-29T05:57:14.602Z,100683.12
2019-05-29T05:59:46.882Z,100689.54
2019-05-29T06:02:19.429Z,100688.83
2019-05-29T06:04:51.872Z,100688.59
2019-05-29T06:07:24.195Z,100682.40
2019-05-29T06:09:56.794Z,100692.21
2019-05-29T06:12:29.190Z,100691.04
2019-05-29T06:15:01.716Z,100697.83
2019-05-29T06:17:34.428Z,100696.72
2019-05-29T06:20:07.296Z,100694.16
2019-05-29T06:22:41.033Z,100695.95
2019-05-29T06:25:14.126Z,100693.03
2019-05-29T06:27:46.571Z,100693.27
2019-05-29T06:30:20.486Z,100686.34
2019-05-29T06:32:53.051Z,100692.26
2019-05-29T06:35:25.702Z,100688.00
2019-05-29T06:37:58.154Z,100692.06
2019-05-29T06:40:40.285Z,100694.34
2019-05-29T06:43:31.765Z,100686.59
2019-05-29T06:46:04.224Z,100688.97
2019-05-29T06:48:46.692Z,100682.00
2019-05-29T06:51:11.326Z,100690.82
2019-05-29T06:53:44.160Z,100683.59
2019-05-29T06:56:17.241Z,100688.41
2019-05-29T06:58:49.955Z,100686.52
2019-05-29T07:01:22.494Z,100683.30
2019-05-29T07:04:10.603Z,100681.31
2019-05-29T07:06:29.088Z,100682.38
2019-05-29T07:09:01.475Z,100687.73
2019-05-29T07:11:34.259Z,100686.73
2019-05-29T07:14:06.667Z,100679.94
2019-05-29T07:16:45.199Z,100687.23
2019-05-29T07:19:47.199Z,100689.53
2019-05-29T07:21:47.266Z,100696.48
2019-05-29T07:24:19.662Z,100694.71
2019-05-29T07:26:52.264Z,100696.80
2019-05-29T07:29:24.701Z,100702.23
2019-05-29T07:31:57.507Z,100697.60
2019-05-29T07:34:29.775Z,100696.59
2019-05-29T07:37:09.482Z,100701.14
2019-05-29T07:39:43.960Z,100696.64
2019-05-29T07:42:16.662Z,100703.91
2019-05-29T07:44:48.981Z,100706.28
2019-05-29T07:47:21.393Z,100694.16
2019-05-29T07:49:53.787Z,100701.20
2019-05-29T07:52:26.193Z,100696.41
2019-05-29T07:54:58.553Z,100694.87
2019-05-29T07:57:31.025Z,100690.91
2019-05-29T08:00:03.345Z,100683.66
2019-05-29T08:02:35.797Z,100686.92
2019-05-29T08:05:09.478Z,100689.89
2019-05-29T08:07:43.401Z,100686.79
2019-05-29T08:10:16.337Z,100688.28
2019-05-29T08:12:54.309Z,100681.14
2019-05-29T08:15:22.608Z,100675.67
2019-05-29T08:17:54.985Z,100675.20
2019-05-29T08:20:27.241Z,100671.30
2019-05-29T08:22:59.679Z,100668.48
2019-05-29T08:25:33.447Z,100670.77
2019-05-29T08:28:07.294Z,100668.22
2019-05-29T08:30:41.027Z,100661.53
2019-05-29T08:33:13.572Z,100659.31
2019-05-29T08:35:47.187Z,100655.77
2019-05-29T08:38:20.422Z,100663.22
2019-05-29T08:40:52.895Z,100659.73
2019-05-29T08:43:25.080Z,100654.48
2019-05-29T08:45:59.464Z,100663.13
2019-05-29T08:48:31.758Z,100654.84
2019-05-29T08:51:04.276Z,100663.31
2019-05-29T08:53:36.556Z,100661.33
2019-05-29T08:56:08.877Z,100665.27
2019-05-29T08:58:42.909Z,100658.53
2019-05-29T09:01:15.385Z,100654.37
2019-05-29T09:03:48.882Z,100652.56
2019-05-29T09:06:21.421Z,100651.80
2019-05-29T09:08:54.994Z,100643.35
2019-05-29T09:11:27.770Z,100643.47
2019-05-29T09:13:59.937Z,100647.39
2019-05-29T09:16:32.269Z,100648.94
2019-05-29T09:19:04.540Z,100642.70
2019-05-29T09:21:36.975Z,100642.62
2019-05-29T09:24:09.269Z,100648.20
2019-05-29T09:26:41.819Z,100647.08
2019-05-29T09:29:16.702Z,100639.42
2019-05-29T09:31:48.159Z,100646.16
2019-05-29T09:34:20.591Z,100645.59
2019-05-29T09:36:55.691Z,100642.51
2019-05-29T09:39:27.155Z,100638.78
2019-05-29T09:41:59.941Z,100647.85
2019-05-29T09:44:38.970Z,100641.81
2019-05-29T09:47:07.035Z,100640.97
2019-05-29T09:49:39.347Z,100647.22
2019-05-29T09:52:11.585Z,100648.09
2019-05-29T09:54:44.000Z,100644.13
2019-05-29T09:57:16.300Z,100650.16
2019-05-29T09:59:48.669Z,100641.49
2019-05-29T10:02:21.204Z,100643.51
2019-05-29T10:04:55.913Z,100641.20
2019-05-29T10:07:28.599Z,100641.72
2019-05-29T10:10:03.082Z,100624.56
2019-05-29T10:12:35.486Z,100622.20
2019-05-29T10:15:08.921Z,100630.02
2019-05-29T10:17:41.207Z,100637.63
2019-05-29T10:20:15.859Z,100630.55
2019-05-29T10:22:49.395Z,100628.86
2019-05-29T10:25:22.590Z,100625.99
2019-05-29T10:27:54.967Z,100623.73
2019-05-29T10:30:28.692Z,100618.04
2019-05-29T10:33:00.924Z,100617.66
2019-05-29T10:35:33.303Z,100613.01
2019-05-29T10:38:06.014Z,100610.89
2019-05-29T10:40:38.668Z,100608.06
2019-05-29T10:43:11.395Z,100599.20
2019-05-29T10:45:43.667Z,100591.11
2019-05-29T10:48:18.446Z,100592.25
2019-05-29T10:50:52.560Z,100603.06
2019-05-29T10:53:25.325Z,100592.09
2019-05-29T10:55:58.148Z,100588.41
2019-05-29T10:58:45.772Z,100593.47
2019-05-29T11:01:05.364Z,100583.74
2019-05-29T11:03:37.949Z,100589.05
2019-05-29T11:06:10.329Z,100589.25
2019-05-29T11:08:42.765Z,100585.81
2019-05-29T11:11:15.057Z,100584.20
2019-05-29T11:13:48.653Z,100577.31
2019-05-29T11:16:21.273Z,100576.52
2019-05-29T11:18:55.212Z,100570.83
2019-05-29T11:21:27.689Z,100573.23
2019-05-29T11:24:00.056Z,100567.69
2019-05-29T11:26:32.411Z,100569.50
2019-05-29T11:29:04.699Z,100555.06
2019-05-29T11:31:36.982Z,100554.62
2019-05-29T11:34:09.289Z,100563.75
2019-05-29T11:36:42.048Z,100556.63
2019-05-29T11:39:14.566Z,100556.38
2019-05-29T11:41:46.861Z,100554.16
2019-05-29T11:44:19.115Z,100552.41
2019-05-29T11:46:52.140Z,100549.95
2019-05-29T11:49:24.851Z,100551.17
2019-05-29T11:52:18.829Z,100553.78
2019-05-29T11:54:31.115Z,100551.31
2019-05-29T11:57:03.431Z,100554.11
2019-05-29T11:59:36.106Z,100546.50
2019-05-29T12:02:08.514Z,100541.71
2019-05-29T12:04:40.972Z,100549.36
2019-05-29T12:07:13.247Z,100547.74
2019-05-29T12:09:45.656Z,100542.29
2019-05-29T12:12:18.095Z,100537.00
2019-05-29T12:15:00.254Z,100534.83
2019-05-29T12:17:24.774Z,100544.09
2019-05-29T12:20:02.350Z,100542.96
2019-05-29T12:22:35.782Z,100535.50
2019-05-29T12:25:08.687Z,100535.72
2019-05-29T12:27:41.287Z,100527.60
2019-05-29T12:30:14.737Z,100532.70
2019-05-29T12:32:47.851Z,100542.48
2019-05-29T12:35:20.896Z,100529.34
2019-05-29T12:37:53.297Z,100523.95
2019-05-29T12:40:25.962Z,100526.27
2019-05-29T12:42:59.938Z,100521.44
2019-05-29T12:45:32.257Z,100514.92
2019-05-29T12:48:11.693Z,100507.80
2019-05-29T12:50:38.952Z,100514.33
2019-05-29T12:53:28.318Z,100511.28
2019-05-29T12:55:46.628Z,100515.41
2019-05-29T12:58:19.109Z,100514.19
2019-05-29T13:00:51.710Z,100523.96
2019-05-29T13:03:24.088Z,100513.79
2019-05-29T13:05:56.734Z,100504.38
2019-05-29T13:08:28.988Z,100510.84
2019-05-29T13:11:02.668Z,100508.98
2019-05-29T13:13:35.100Z,100505.09
2019-05-29T13:16:07.558Z,100502.69
2019-05-29T13:18:39.813Z,100499.50
2019-05-29T13:21:12.353Z,100496.55
2019-05-29T13:23:45.714Z,100497.83
2019-05-29T13:26:18.338Z,100495.05
2019-05-29T13:28:50.766Z,100489.39
2019-05-29T13:31:23.089Z,100489.44
2019-05-29T13:33:55.630Z,100485.78
2019-05-29T13:36:27.853Z,100486.66
2019-05-29T13:39:00.220Z,100483.84
2019-05-29T13:41:32.854Z,100479.59
2019-05-29T13:44:06.790Z,100477.56
2019-05-29T13:46:39.350Z,100474.14
2019-05-29T13:49:11.797Z,100477.06
2019-05-29T13:51:44.138Z,100473.91
2019-05-29T13:54:18.132Z,100469.30
2019-05-29T13:56:50.739Z,100472.77
2019-05-29T13:59:24.588Z,100459.58
2019-05-29T14:01:58.272Z,100467.09
2019-05-29T14:04:30.894Z,100472.81
2019-05-29T14:07:04.917Z,100464.95
2019-05-29T14:09:37.724Z,100472.27
2019-05-29T14:12:10.089Z,100474.36
2019-05-29T14:14:43.273Z,100475.98
2019-05-29T14:17:15.599Z,100480.91
2019-05-29T14:19:48.358Z,100485.20
2019-05-29T14:22:20.974Z,100486.80
2019-05-29T14:24:53.369Z,100492.09
2019-05-29T14:27:25.772Z,100482.37
2019-05-29T14:29:58.169Z,100477.94
2019-05-29T14:32:30.464Z,100482.83
2019-05-29T14:35:05.173Z,100480.42
2019-05-29T14:37:36.765Z,100473.97
2019-05-29T14:40:09.907Z,100469.34
2019-05-29T14:42:42.643Z,100464.92
2019-05-29T14:45:16.654Z,100469.81
2019-05-29T14:47:49.031Z,100457.05
2019-05-29T14:50:21.439Z,100457.67
2019-05-29T14:52:53.859Z,100459.69
2019-05-29T14:55:26.062Z,100457.67
2019-05-29T14:57:58.580Z,100461.94
2019-05-29T15:00:31.022Z,100461.11
2019-05-29T15:03:03.426Z,100463.16
2019-05-29T15:05:35.923Z,100462.96
2019-05-29T15:08:09.607Z,100463.75
2019-05-29T15:10:42.367Z,100466.20
2019-05-29T15:13:15.296Z,100461.94
2019-05-29T15:15:48.028Z,100466.99
2019-05-29T15:18:20.376Z,100466.20
2019-05-29T15:20:52.812Z,100464.19
2019-05-29T15:23:25.140Z,100463.19
2019-05-29T15:25:57.720Z,100460.15
2019-05-29T15:28:30.017Z,100465.63
2019-05-29T15:31:02.460Z,100464.61
2019-05-29T15:33:34.634Z,100462.39
2019-05-29T15:36:07.029Z,100461.99
2019-05-29T15:38:39.392Z,100459.38
2019-05-29T15:41:14.827Z,100457.16
2019-05-29T15:43:49.418Z,100456.77
2019-05-29T15:46:22.845Z,100456.40
2019-05-29T15:48:55.463Z,100454.58
2019-05-29T15:51:28.110Z,100452.36
2019-05-29T15:54:01.286Z,100446.28
2019-05-29T15:56:34.061Z,100447.33
2019-05-29T15:59:07.958Z,100453.83
2019-05-29T16:01:41.875Z,100452.02
2019-05-29T16:04:15.763Z,100454.28
2019-05-29T16:06:48.151Z,100449.63
2019-05-29T16:09:20.613Z,100449.65
2019-05-29T16:11:53.157Z,100452.91
2019-05-29T16:14:25.530Z,100452.47
2019-05-29T16:16:57.953Z,100452.27
2019-05-29T16:19:30.151Z,100456.33
2019-05-29T16:22:02.635Z,100458.17
2019-05-29T16:24:35.130Z,100446.22
2019-05-29T16:27:10.560Z,100449.70
2019-05-29T16:29:42.916Z,100443.42
2019-05-29T16:32:16.069Z,100439.39
2019-05-29T16:34:48.595Z,100440.41
2019-05-29T16:37:21.953Z,100442.05
2019-05-29T16:39:54.632Z,100441.05
2019-05-29T16:42:27.499Z,100443.69
2019-05-29T16:44:59.911Z,100445.50
2019-05-29T16:47:32.846Z,100447.34
2019-05-29T16:50:05.883Z,100442.68
2019-05-29T16:52:38.483Z,100443.10
2019-05-29T16:55:11.083Z,100445.53
2019-05-29T16:57:43.888Z,100441.50
2019-05-29T17:00:17.733Z,100445.35
2019-05-29T17:02:50.737Z,100446.37
2019-05-29T17:05:24.256Z,100443.95
2019-05-29T17:07:57.281Z,100443.55
2019-05-29T17:10:39.069Z,100441.33
2019-05-29T17:13:11.765Z,100444.56
2019-05-29T17:15:44.198Z,100452.67
2019-05-29T17:18:18.867Z,100454.91
2019-05-29T17:20:51.184Z,100456.12
2019-05-29T17:23:25.219Z,100462.81
2019-05-29T17:26:10.143Z,100464.03
2019-05-29T17:28:31.931Z,100467.30
2019-05-29T17:31:04.536Z,100475.39
2019-05-29T17:33:37.163Z,100477.00
2019-05-29T17:36:09.538Z,100475.80
2019-05-29T17:38:42.571Z,100479.23
2019-05-29T17:41:15.331Z,100487.76
2019-05-29T17:43:48.187Z,100494.66
2019-05-29T17:46:21.698Z,100503.17
2019-05-29T17:48:54.282Z,100507.02
2019-05-29T17:51:26.541Z,100522.00
2019-05-29T17:53:59.714Z,100518.97
2019-05-29T17:56:36.580Z,100528.11
2019-05-29T17:59:07.463Z,100522.83
2019-05-29T18:01:40.075Z,100519.80
2019-05-29T18:04:12.859Z,100535.98
2019-05-29T18:06:45.098Z,100539.21
2019-05-29T18:09:18.979Z,100538.38
2019-05-29T18:11:51.668Z,100543.22
2019-05-29T18:14:25.320Z,100540.19
2019-05-29T18:16:57.675Z,100540.97
2019-05-29T18:19:30.168Z,100541.17
2019-05-29T18:22:02.956Z,100544.17
2019-05-29T18:24:35.446Z,100548.83
2019-05-29T18:27:08.234Z,100553.25
2019-05-29T18:29:40.742Z,100557.88
2019-05-29T18:32:13.218Z,100556.05
2019-05-29T18:34:45.624Z,100554.42
2019-05-29T18:37:18.023Z,100556.66
2019-05-29T18:39:50.249Z,100560.91
2019-05-29T18:42:22.688Z,100559.91
2019-05-29T18:44:54.940Z,100561.32
2019-05-29T18:47:27.495Z,100558.08
2019-05-29T18:50:00.134Z,100552.20
2019-05-29T18:52:32.941Z,100559.49
2019-05-29T18:55:05.453Z,100566.36
2019-05-29T18:57:38.164Z,100565.56
2019-05-29T19:00:11.888Z,100566.16
2019-05-29T19:02:44.500Z,100565.94
2019-05-29T19:05:17.788Z,100567.36
2019-05-29T19:07:50.272Z,100570.81
2019-05-29T19:10:23.672Z,100576.27
2019-05-29T19:12:56.503Z,100566.77
2019-05-29T19:15:30.079Z,100567.77
2019-05-29T19:18:03.995Z,100567.93
2019-05-29T19:20:36.347Z,100574.42
2019-05-29T19:23:08.963Z,100569.75
2019-05-29T19:25:41.394Z,100572.37
2019-05-29T19:28:14.283Z,100573.00
2019-05-29T19:30:46.662Z,100572.58
2019-05-29T19:33:19.328Z,100577.62
2019-05-29T19:35:51.896Z,100579.23
2019-05-29T19:38:25.654Z,100587.73
2019-05-29T19:40:57.948Z,100578.81
2019-05-29T19:43:30.370Z,100589.92
2019-05-29T19:46:02.736Z,100594.80
2019-05-29T19:48:35.473Z,100596.00
2019-05-29T19:51:08.188Z,100594.78
2019-05-29T19:53:40.660Z,100591.33
2019-05-29T19:56:13.884Z,100586.70
2019-05-29T19:58:49.669Z,100595.19
2019-05-29T20:01:30.488Z,100589.69
2019-05-29T20:03:56.053Z,100592.72
2019-05-29T20:06:28.859Z,100588.88
2019-05-29T20:09:01.562Z,100593.71
2019-05-29T20:11:33.975Z,100591.09
2019-05-29T20:14:07.630Z,100592.10
2019-05-29T20:16:40.130Z,100598.59
2019-05-29T20:19:12.731Z,100599.02
2019-05-29T20:21:45.072Z,100596.98
2019-05-29T20:24:17.473Z,100600.84
2019-05-29T20:26:49.796Z,100606.30
2019-05-29T20:29:22.103Z,100604.27
2019-05-29T20:31:54.769Z,100601.22
2019-05-29T20:34:27.151Z,100603.26
2019-05-29T20:36:59.818Z,100595.14
2019-05-29T20:39:32.992Z,100598.17
2019-05-29T20:42:06.224Z,100590.47
2019-05-29T20:44:38.815Z,100585.21
2019-05-29T20:47:11.443Z,100585.00
2019-05-29T20:49:47.300Z,100590.66
2019-05-29T20:54:58.559Z,100572.67
2019-05-29T20:57:29.298Z,100576.92
2019-05-29T21:00:01.842Z,100575.50
2019-05-29T21:02:34.269Z,100571.26
2019-05-29T21:05:07.741Z,100566.19
2019-05-29T21:07:41.006Z,100572.46
2019-05-29T21:10:14.477Z,100569.63
2019-05-29T21:12:47.775Z,100574.50
2019-05-29T21:15:20.844Z,100569.21
2019-05-29T21:17:53.683Z,100577.28
2019-05-29T21:20:29.093Z,100576.48
2019-05-29T21:23:00.913Z,100579.10
2019-05-29T21:25:34.589Z,100577.47
2019-05-29T21:28:07.618Z,100581.51
2019-05-29T21:30:41.363Z,100580.92
2019-05-29T21:33:14.532Z,100582.92
2019-05-29T21:35:47.442Z,100582.13
2019-05-29T21:38:19.747Z,100579.30
2019-05-29T21:40:52.372Z,100584.12
2019-05-29T21:43:24.778Z,100587.16
2019-05-29T21:45:57.456Z,100576.23
2019-05-29T21:48:29.656Z,100587.55
2019-05-29T21:51:02.932Z,100573.63
2019-05-29T21:53:35.235Z,100578.88
2019-05-29T21:56:12.221Z,100575.04
2019-05-29T21:58:59.971Z,100568.77
2019-05-29T22:01:19.916Z,100565.93
2019-05-29T22:03:52.320Z,100565.72
2019-05-29T22:06:25.097Z,100569.37
2019-05-29T22:08:57.859Z,100564.30
2019-05-29T22:11:30.137Z,100566.55
2019-05-29T22:14:02.669Z,100566.34
2019-05-29T22:16:34.943Z,100559.61
2019-05-29T22:19:07.773Z,100558.39
2019-05-29T22:21:40.331Z,100556.77
2019-05-29T22:24:12.901Z,100550.51
2019-05-29T22:26:45.277Z,100543.22
2019-05-29T22:29:18.590Z,100547.67
2019-05-29T22:31:51.309Z,100547.62
2019-05-29T22:34:23.894Z,100554.90
2019-05-29T22:36:57.482Z,100548.66
2019-05-29T22:39:30.445Z,100550.44
2019-05-29T22:42:03.126Z,100545.19
2019-05-29T22:44:36.098Z,100552.25
2019-05-29T22:47:08.429Z,100550.41
2019-05-29T22:49:40.879Z,100543.95
2019-05-29T22:52:13.170Z,100552.23
2019-05-29T22:54:45.613Z,100557.67
2019-05-29T22:57:18.280Z,100553.43
2019-05-29T22:59:51.841Z,100558.05
2019-05-29T23:02:24.207Z,100559.07
2019-05-29T23:04:58.473Z,100567.55
2019-05-29T23:07:31.493Z,100560.64
2019-05-29T23:10:04.247Z,100567.72
2019-05-29T23:12:36.495Z,100568.52
2019-05-29T23:15:10.392Z,100569.32
2019-05-29T23:17:43.035Z,100579.22
2019-05-29T23:20:16.538Z,100581.62
2019-05-29T23:22:48.881Z,100580.61
2019-05-29T23:25:21.403Z,100581.20
2019-05-29T23:27:54.858Z,100586.05
2019-05-29T23:30:30.271Z,100582.61
2019-05-29T23:33:01.470Z,100586.67
2019-05-29T23:35:33.815Z,100585.05
2019-05-29T23:38:06.271Z,100592.70
2019-05-29T23:40:38.546Z,100595.31
2019-05-29T23:43:11.158Z,100594.30
2019-05-29T23:45:43.679Z,100590.63
2019-05-29T23:48:19.951Z,100585.98
2019-05-29T23:50:53.348Z,100582.52
2019-05-29T23:53:25.935Z,100591.98
2019-05-29T23:55:59.720Z,100595.80
2019-05-29T23:58:32.357Z,100593.80
